Time;durP1;ratioP1;P1;durP2;ratioP2;P2;SDS_P1;SDS_P2;PMS_P1;PMS_P2;Temp;Humidity;BMP_temperature;BMP_pressure;BME280_temperature;BME280_humidity;BME280_pressure;Samples;Min_cycle;Max_cycle;Signal;HPM_P1;HPM_P2
2023/07/14 00:02:00;;;;;;;;;34.25;30.75;;;;;;;;6488678;46;8955;-56
2023/07/14 00:08:06;;;;;;;;;40.00;34.00;;;;;;;;6488998;39;8920;-55
2023/07/14 00:14:08;;;;;;;;;37.00;34.00;;;;;;;;6489796;46;8856;-57
2023/07/14 00:20:22;;;;;;;;;35.75;32.00;;;;;;;;6489780;39;8874;-56
2023/07/14 00:26:26;;;;;;;;;35.50;32.25;;;;;;;;6489856;39;8900;-55
2023/07/14 00:32:34;;;;;;;;;38.75;34.00;;;;;;;;6488981;46;8893;-53
2023/07/14 00:38:37;;;;;;;;;40.75;35.50;;;;;;;;6489193;39;8875;-56
2023/07/14 00:44:39;;;;;;;;;31.00;29.75;;;;;;;;6490065;39;8920;-55
2023/07/14 00:50:45;;;;;;;;;33.75;31.50;;;;;;;;6488601;46;8950;-57
2023/07/14 00:56:49;;;;;;;;;26.75;24.75;;;;;;;;6488551;46;10000;-56
2023/07/14 01:02:56;;;;;;;;;25.00;22.75;;;;;;;;6487204;31;8931;-57
2023/07/14 01:09:09;;;;;;;;;25.75;24.00;;;;;;;;6488338;31;9318;-56
2023/07/14 01:15:13;;;;;;;;;27.00;24.00;;;;;;;;6488722;39;8868;-56
2023/07/14 01:21:23;;;;;;;;;22.75;20.75;;;;;;;;6489022;46;8871;-57
2023/07/14 01:27:26;;;;;;;;;28.25;27.00;;;;;;;;6488569;39;8983;-57
2023/07/14 01:33:29;;;;;;;;;22.25;22.00;;;;;;;;6487754;31;8892;-56
2023/07/14 01:39:32;;;;;;;;;27.25;23.25;;;;;;;;6488448;31;8852;-57
2023/07/14 01:45:45;;;;;;;;;20.25;18.50;;;;;;;;6488777;46;8915;-57
2023/07/14 01:51:50;;;;;;;;;23.50;22.00;;;;;;;;6488691;46;8883;-56
2023/07/14 01:58:00;;;;;;;;;22.25;19.50;;;;;;;;6489417;46;8944;-55
2023/07/14 02:04:17;;;;;;;;;19.50;19.50;;;;;;;;6488050;46;8945;-57
2023/07/14 02:10:21;;;;;;;;;15.00;14.25;;;;;;;;6488656;46;8869;-57
2023/07/14 02:16:25;;;;;;;;;8.25;8.25;;;;;;;;6487490;31;8885;-55
2023/07/14 02:22:31;;;;;;;;;7.00;7.00;;;;;;;;6488505;39;8913;-57
2023/07/14 02:28:33;;;;;;;;;7.50;6.75;;;;;;;;6488757;39;9648;-56
2023/07/14 02:34:41;;;;;;;;;5.00;5.00;;;;;;;;6306675;46;10000721;-56
2023/07/14 02:40:44;;;;;;;;;4.00;4.00;;;;;;;;6488917;39;9628;-56
2023/07/14 02:46:53;;;;;;;;;5.50;5.00;;;;;;;;6488296;39;8915;-57
2023/07/14 02:52:56;;;;;;;;;5.75;5.75;;;;;;;;6489348;31;9065;-56
2023/07/14 02:58:58;;;;;;;;;7.00;6.00;;;;;;;;6487665;39;8931;-56
2023/07/14 03:05:00;;;;;;;;;6.00;6.00;;;;;;;;6487479;46;8876;-56
2023/07/14 03:11:03;;;;;;;;;5.50;5.50;;;;;;;;6488273;39;8887;-57
2023/07/14 03:17:05;;;;;;;;;6.25;6.00;;;;;;;;6487534;39;8959;-56
2023/07/14 03:23:07;;;;;;;;;6.25;6.25;;;;;;;;6487981;47;8843;-56
2023/07/14 03:29:10;;;;;;;;;6.00;6.00;;;;;;;;6488989;39;8987;-57
2023/07/14 03:35:12;;;;;;;;;8.00;8.00;;;;;;;;6491175;39;8874;-57
2023/07/14 03:41:15;;;;;;;;;6.75;6.75;;;;;;;;6490874;39;8892;-57
2023/07/14 03:47:19;;;;;;;;;7.25;6.50;;;;;;;;6489141;39;8970;-57
2023/07/14 03:53:22;;;;;;;;;13.50;11.25;;;;;;;;6491037;39;9180;-56
2023/07/14 03:59:25;;;;;;;;;10.75;9.50;;;;;;;;6489482;46;8928;-56
2023/07/14 04:05:28;;;;;;;;;13.67;12.00;;;;;;;;6466624;31;9005;-57
2023/07/14 04:11:34;;;;;;;;;14.00;12.33;;;;;;;;6492395;46;9020;-57
2023/07/14 04:17:40;;;;;;;;;16.00;13.67;;;;;;;;6492871;31;8962;-57
2023/07/14 04:23:44;;;;;;;;;14.00;12.67;;;;;;;;6493234;39;8851;-56
2023/07/14 04:29:46;;;;;;;;;13.33;10.00;;;;;;;;6493043;39;9018;-56
